sensor_id;sensor_type;location;lat;lon;timestamp;pressure;altitude;pressure_sealevel;temperature;humidity
4133;BME280;2080;51.038;7.008;2024-02-16T00:01:00;46158.22;;;-142.53;78.18
4133;BME280;2080;51.038;7.008;2024-02-16T00:03:26;46135.13;;;-142.53;77.70
4133;BME280;2080;51.038;7.008;2024-02-16T00:05:54;46123.56;;;-142.53;76.52
4133;BME280;2080;51.038;7.008;2024-02-16T00:08:20;46150.53;;;-142.53;76.83
4133;BME280;2080;51.038;7.008;2024-02-16T00:10:46;46138.97;;;-142.53;76.99
4133;BME280;2080;51.038;7.008;2024-02-16T00:13:14;46142.81;;;-142.53;76.46
4133;BME280;2080;51.038;7.008;2024-02-16T00:15:40;46142.81;;;-142.53;79.03
4133;BME280;2080;51.038;7.008;2024-02-16T00:18:06;46142.81;;;-142.53;77.03
4133;BME280;2080;51.038;7.008;2024-02-16T00:20:34;46146.66;;;-142.53;77.34
4133;BME280;2080;51.038;7.008;2024-02-16T00:22:59;46173.63;;;-142.53;77.00
4133;BME280;2080;51.038;7.008;2024-02-16T00:25:27;46156.28;;;-142.53;78.57
4133;BME280;2080;51.038;7.008;2024-02-16T00:27:53;46160.16;;;-142.53;78.93
4133;BME280;2080;51.038;7.008;2024-02-16T00:30:22;46150.53;;;-142.53;78.67
4133;BME280;2080;51.038;7.008;2024-02-16T00:32:48;46131.28;;;-142.53;79.14
4133;BME280;2080;51.038;7.008;2024-02-16T00:35:15;46154.38;;;-142.53;77.49
4133;BME280;2080;51.038;7.008;2024-02-16T00:37:42;46131.28;;;-142.53;79.16
4133;BME280;2080;51.038;7.008;2024-02-16T00:40:08;46146.66;;;-142.53;78.54
4133;BME280;2080;51.038;7.008;2024-02-16T00:42:38;46150.53;;;-142.53;77.65
4133;BME280;2080;51.038;7.008;2024-02-16T00:45:07;46123.56;;;-142.53;77.62
4133;BME280;2080;51.038;7.008;2024-02-16T00:47:33;46119.72;;;-142.53;76.97
4133;BME280;2080;51.038;7.008;2024-02-16T00:49:58;46150.53;;;-142.53;78.02
4133;BME280;2080;51.038;7.008;2024-02-16T00:52:24;46137.03;;;-142.53;77.23
4133;BME280;2080;51.038;7.008;2024-02-16T00:54:52;46146.66;;;-142.53;77.49
4133;BME280;2080;51.038;7.008;2024-02-16T00:57:17;46162.06;;;-142.53;76.74
4133;BME280;2080;51.038;7.008;2024-02-16T00:59:42;46138.97;;;-142.53;76.34
4133;BME280;2080;51.038;7.008;2024-02-16T01:02:10;46135.13;;;-142.53;76.58
4133;BME280;2080;51.038;7.008;2024-02-16T01:04:36;46135.13;;;-142.53;77.03
4133;BME280;2080;51.038;7.008;2024-02-16T01:07:02;46125.50;;;-142.53;75.23
4133;BME280;2080;51.038;7.008;2024-02-16T01:09:28;46148.59;;;-142.53;77.09
4133;BME280;2080;51.038;7.008;2024-02-16T01:11:53;46146.66;;;-142.53;76.35
4133;BME280;2080;51.038;7.008;2024-02-16T01:14:21;46146.66;;;-142.53;75.68
4133;BME280;2080;51.038;7.008;2024-02-16T01:16:47;46119.72;;;-142.53;77.16
4133;BME280;2080;51.038;7.008;2024-02-16T01:19:12;46142.81;;;-142.53;76.13
4133;BME280;2080;51.038;7.008;2024-02-16T01:21:38;46156.28;;;-142.53;75.60
4133;BME280;2080;51.038;7.008;2024-02-16T01:24:05;46123.56;;;-142.53;75.99
4133;BME280;2080;51.038;7.008;2024-02-16T01:26:34;46117.78;;;-142.53;75.67
4133;BME280;2080;51.038;7.008;2024-02-16T01:28:59;46164.00;;;-142.53;76.22
4133;BME280;2080;51.038;7.008;2024-02-16T01:31:25;46119.72;;;-142.53;76.01
4133;BME280;2080;51.038;7.008;2024-02-16T01:33:51;46123.56;;;-142.53;75.52
4133;BME280;2080;51.038;7.008;2024-02-16T01:36:19;46158.22;;;-142.53;79.71
4133;BME280;2080;51.038;7.008;2024-02-16T01:38:45;46135.13;;;-142.53;75.82
4133;BME280;2080;51.038;7.008;2024-02-16T01:41:13;46146.66;;;-142.53;76.55
4133;BME280;2080;51.038;7.008;2024-02-16T01:43:40;46142.81;;;-142.53;75.43
4133;BME280;2080;51.038;7.008;2024-02-16T01:46:05;46140.91;;;-142.53;77.07
4133;BME280;2080;51.038;7.008;2024-02-16T01:48:31;46152.44;;;-142.53;76.11
4133;BME280;2080;51.038;7.008;2024-02-16T01:50:57;46150.53;;;-142.53;76.19
4133;BME280;2080;51.038;7.008;2024-02-16T01:53:23;46167.84;;;-142.53;75.10
4133;BME280;2080;51.038;7.008;2024-02-16T01:55:49;46127.41;;;-142.53;76.11
4133;BME280;2080;51.038;7.008;2024-02-16T01:58:18;46150.53;;;-142.53;76.56
4133;BME280;2080;51.038;7.008;2024-02-16T02:00:43;46135.13;;;-142.53;75.42
4133;BME280;2080;51.038;7.008;2024-02-16T02:03:11;46135.13;;;-142.53;74.61
4133;BME280;2080;51.038;7.008;2024-02-16T02:05:45;46115.88;;;-142.53;74.90
4133;BME280;2080;51.038;7.008;2024-02-16T02:08:11;46144.75;;;-142.53;75.71
4133;BME280;2080;51.038;7.008;2024-02-16T02:10:37;46138.97;;;-142.53;74.75
4133;BME280;2080;51.038;7.008;2024-02-16T02:13:02;46142.81;;;-142.53;74.69
4133;BME280;2080;51.038;7.008;2024-02-16T02:15:28;46142.81;;;-142.53;75.04
4133;BME280;2080;51.038;7.008;2024-02-16T02:17:57;46142.81;;;-142.53;77.66
4133;BME280;2080;51.038;7.008;2024-02-16T02:20:24;46119.72;;;-142.53;74.86
4133;BME280;2080;51.038;7.008;2024-02-16T02:22:52;46154.38;;;-142.53;74.23
4133;BME280;2080;51.038;7.008;2024-02-16T02:25:22;46138.97;;;-142.53;74.03
4133;BME280;2080;51.038;7.008;2024-02-16T02:27:50;46156.28;;;-142.53;74.80
4133;BME280;2080;51.038;7.008;2024-02-16T02:30:16;46154.38;;;-142.53;75.16
4133;BME280;2080;51.038;7.008;2024-02-16T02:32:41;46146.66;;;-142.53;75.15
4133;BME280;2080;51.038;7.008;2024-02-16T02:35:08;46154.38;;;-142.53;75.93
4133;BME280;2080;51.038;7.008;2024-02-16T02:37:33;46123.56;;;-142.53;75.68
4133;BME280;2080;51.038;7.008;2024-02-16T02:39:59;46150.53;;;-142.53;76.19
4133;BME280;2080;51.038;7.008;2024-02-16T02:42:24;46135.13;;;-142.53;75.67
4133;BME280;2080;51.038;7.008;2024-02-16T02:44:50;46160.16;;;-142.53;76.22
4133;BME280;2080;51.038;7.008;2024-02-16T02:47:16;46131.28;;;-142.53;75.30
4133;BME280;2080;51.038;7.008;2024-02-16T02:49:42;46135.13;;;-142.53;77.37
4133;BME280;2080;51.038;7.008;2024-02-16T02:52:08;46142.81;;;-142.53;75.87
4133;BME280;2080;51.038;7.008;2024-02-16T02:54:36;46144.75;;;-142.53;77.00
4133;BME280;2080;51.038;7.008;2024-02-16T02:57:02;46115.88;;;-142.53;76.01
4133;BME280;2080;51.038;7.008;2024-02-16T02:59:28;46140.91;;;-142.53;76.09
4133;BME280;2080;51.038;7.008;2024-02-16T03:01:53;46138.97;;;-142.53;76.53
4133;BME280;2080;51.038;7.008;2024-02-16T03:04:19;46131.28;;;-142.53;77.48
4133;BME280;2080;51.038;7.008;2024-02-16T03:06:44;46146.66;;;-142.53;78.18
4133;BME280;2080;51.038;7.008;2024-02-16T03:09:11;46144.75;;;-142.53;78.19
4133;BME280;2080;51.038;7.008;2024-02-16T03:11:39;46146.66;;;-142.53;77.40
4133;BME280;2080;51.038;7.008;2024-02-16T03:14:05;46152.44;;;-142.53;79.40
4133;BME280;2080;51.038;7.008;2024-02-16T03:20:11;46135.13;;;-142.53;80.91
4133;BME280;2080;51.038;7.008;2024-02-16T03:22:37;46138.97;;;-142.53;81.40
4133;BME280;2080;51.038;7.008;2024-02-16T03:25:02;46173.63;;;-142.53;82.96
4133;BME280;2080;51.038;7.008;2024-02-16T03:27:30;46187.09;;;-142.53;82.36
4133;BME280;2080;51.038;7.008;2024-02-16T03:29:58;46154.38;;;-142.53;83.51
4133;BME280;2080;51.038;7.008;2024-02-16T03:32:23;46173.63;;;-142.53;82.00
4133;BME280;2080;51.038;7.008;2024-02-16T03:34:49;46148.59;;;-142.53;82.87
4133;BME280;2080;51.038;7.008;2024-02-16T03:37:14;46144.75;;;-142.53;84.47
4133;BME280;2080;51.038;7.008;2024-02-16T03:39:41;46162.06;;;-142.53;88.41
4133;BME280;2080;51.038;7.008;2024-02-16T03:42:06;46196.72;;;-142.53;85.60
4133;BME280;2080;51.038;7.008;2024-02-16T03:44:32;46104.31;;;-142.53;84.11
4133;BME280;2080;51.038;7.008;2024-02-16T03:46:57;46160.16;;;-142.53;83.12
4133;BME280;2080;51.038;7.008;2024-02-16T03:49:25;46185.16;;;-142.53;83.32
4133;BME280;2080;51.038;7.008;2024-02-16T03:51:55;46135.13;;;-142.53;81.82
4133;BME280;2080;51.038;7.008;2024-02-16T03:54:21;46129.34;;;-142.53;81.70
4133;BME280;2080;51.038;7.008;2024-02-16T03:56:46;46127.41;;;-142.53;81.54
4133;BME280;2080;51.038;7.008;2024-02-16T03:59:11;46160.16;;;-142.53;81.20
4133;BME280;2080;51.038;7.008;2024-02-16T04:01:37;46137.03;;;-142.53;81.05
4133;BME280;2080;51.038;7.008;2024-02-16T04:04:03;46177.47;;;-142.53;81.19
4133;BME280;2080;51.038;7.008;2024-02-16T04:06:28;46185.16;;;-142.53;83.01
4133;BME280;2080;51.038;7.008;2024-02-16T04:09:59;46169.78;;;-142.53;82.43
4133;BME280;2080;51.038;7.008;2024-02-16T04:12:27;46142.81;;;-142.53;80.72
4133;BME280;2080;51.038;7.008;2024-02-16T04:14:55;46169.78;;;-142.53;79.58
4133;BME280;2080;51.038;7.008;2024-02-16T04:17:20;46169.78;;;-142.53;79.93
4133;BME280;2080;51.038;7.008;2024-02-16T04:19:46;46158.22;;;-142.53;80.10
4133;BME280;2080;51.038;7.008;2024-02-16T04:22:11;46150.53;;;-142.53;81.13
4133;BME280;2080;51.038;7.008;2024-02-16T04:24:39;46169.78;;;-142.53;81.60
4133;BME280;2080;51.038;7.008;2024-02-16T04:27:04;46154.38;;;-142.53;80.27
4133;BME280;2080;51.038;7.008;2024-02-16T04:29:30;46164.00;;;-142.53;81.21
4133;BME280;2080;51.038;7.008;2024-02-16T04:31:55;46370.00;;;-142.53;79.03
4133;BME280;2080;51.038;7.008;2024-02-16T04:34:23;46165.91;;;-142.53;79.60
4133;BME280;2080;51.038;7.008;2024-02-16T04:38:49;46146.66;;;-142.53;81.42
4133;BME280;2080;51.038;7.008;2024-02-16T04:41:15;46252.56;;;-142.53;85.39
4133;BME280;2080;51.038;7.008;2024-02-16T04:43:41;46154.38;;;-142.53;83.36
4133;BME280;2080;51.038;7.008;2024-02-16T04:46:17;46165.91;;;-142.53;82.71
4133;BME280;2080;51.038;7.008;2024-02-16T04:48:47;46187.09;;;-142.53;83.00
4133;BME280;2080;51.038;7.008;2024-02-16T04:51:13;46158.22;;;-142.53;82.36
4133;BME280;2080;51.038;7.008;2024-02-16T04:53:38;46169.78;;;-142.53;81.80
4133;BME280;2080;51.038;7.008;2024-02-16T04:56:04;46158.22;;;-142.53;82.09
4133;BME280;2080;51.038;7.008;2024-02-16T04:58:31;46208.28;;;-142.53;83.89
4133;BME280;2080;51.038;7.008;2024-02-16T05:00:56;46215.97;;;-142.53;83.81
4133;BME280;2080;51.038;7.008;2024-02-16T05:03:22;46189.03;;;-142.53;85.45
4133;BME280;2080;51.038;7.008;2024-02-16T05:05:48;46185.16;;;-142.53;85.06
4133;BME280;2080;51.038;7.008;2024-02-16T05:08:14;46200.56;;;-142.53;85.69
4133;BME280;2080;51.038;7.008;2024-02-16T05:10:39;46156.28;;;-142.53;86.18
4133;BME280;2080;51.038;7.008;2024-02-16T05:13:05;46142.81;;;-142.53;87.99
4133;BME280;2080;51.038;7.008;2024-02-16T05:15:30;46227.53;;;-142.53;87.91
4133;BME280;2080;51.038;7.008;2024-02-16T05:17:56;46204.41;;;-142.53;85.54
4133;BME280;2080;51.038;7.008;2024-02-16T05:20:23;46173.63;;;-142.53;84.02
4133;BME280;2080;51.038;7.008;2024-02-16T05:22:51;46129.34;;;-142.53;85.39
4133;BME280;2080;51.038;7.008;2024-02-16T05:25:17;46096.63;;;-142.53;85.30
4133;BME280;2080;51.038;7.008;2024-02-16T05:27:48;46223.69;;;-142.53;85.14
4133;BME280;2080;51.038;7.008;2024-02-16T05:30:13;46183.25;;;-142.53;85.04
4133;BME280;2080;51.038;7.008;2024-02-16T05:32:40;46217.91;;;-142.53;87.56
4133;BME280;2080;51.038;7.008;2024-02-16T05:35:07;46208.28;;;-142.53;87.18
4133;BME280;2080;51.038;7.008;2024-02-16T05:37:44;46196.72;;;-142.53;85.55
4133;BME280;2080;51.038;7.008;2024-02-16T05:40:11;46208.28;;;-142.53;86.57
4133;BME280;2080;51.038;7.008;2024-02-16T05:42:54;46219.81;;;-142.53;85.98
4133;BME280;2080;51.038;7.008;2024-02-16T05:45:23;46204.41;;;-142.53;83.67
4133;BME280;2080;51.038;7.008;2024-02-16T05:47:51;46189.03;;;-142.53;83.54
4133;BME280;2080;51.038;7.008;2024-02-16T05:50:17;46210.19;;;-142.53;83.54
4133;BME280;2080;51.038;7.008;2024-02-16T05:52:43;46200.56;;;-142.53;84.54
4133;BME280;2080;51.038;7.008;2024-02-16T05:55:10;46200.56;;;-142.53;85.68
4133;BME280;2080;51.038;7.008;2024-02-16T05:57:36;46204.41;;;-142.53;88.27
4133;BME280;2080;51.038;7.008;2024-02-16T06:00:08;46208.28;;;-142.53;85.63
4133;BME280;2080;51.038;7.008;2024-02-16T06:02:36;46214.06;;;-142.53;84.63
4133;BME280;2080;51.038;7.008;2024-02-16T06:05:02;46158.22;;;-142.53;84.18
4133;BME280;2080;51.038;7.008;2024-02-16T06:07:31;46204.41;;;-142.53;87.20
4133;BME280;2080;51.038;7.008;2024-02-16T06:09:57;46181.31;;;-142.53;84.81
4133;BME280;2080;51.038;7.008;2024-02-16T06:12:23;46212.13;;;-142.53;85.34
4133;BME280;2080;51.038;7.008;2024-02-16T06:14:49;46192.88;;;-142.53;86.26
4133;BME280;2080;51.038;7.008;2024-02-16T06:17:15;46196.72;;;-142.53;86.62
4133;BME280;2080;51.038;7.008;2024-02-16T06:19:42;46150.53;;;-142.53;87.38
4133;BME280;2080;51.038;7.008;2024-02-16T06:22:07;46192.88;;;-142.53;88.25
4133;BME280;2080;51.038;7.008;2024-02-16T06:24:33;46329.56;;;-142.53;89.35
4133;BME280;2080;51.038;7.008;2024-02-16T06:26:59;46225.59;;;-142.53;87.98
4133;BME280;2080;51.038;7.008;2024-02-16T06:29:27;46215.97;;;-142.53;86.90
4133;BME280;2080;51.038;7.008;2024-02-16T06:31:53;46227.53;;;-142.53;88.59
4133;BME280;2080;51.038;7.008;2024-02-16T06:34:21;46246.78;;;-142.53;87.97
4133;BME280;2080;51.038;7.008;2024-02-16T06:36:46;46212.13;;;-142.53;86.07
4133;BME280;2080;51.038;7.008;2024-02-16T06:39:12;46200.56;;;-142.53;86.51
4133;BME280;2080;51.038;7.008;2024-02-16T06:41:45;46196.72;;;-142.53;86.52
4133;BME280;2080;51.038;7.008;2024-02-16T06:44:11;46189.03;;;-142.53;86.37
4133;BME280;2080;51.038;7.008;2024-02-16T06:46:37;46177.47;;;-142.53;86.86
4133;BME280;2080;51.038;7.008;2024-02-16T06:49:02;46239.06;;;-142.53;85.66
4133;BME280;2080;51.038;7.008;2024-02-16T06:51:32;46173.63;;;-142.53;86.77
4133;BME280;2080;51.038;7.008;2024-02-16T06:53:58;46204.41;;;-142.53;86.06
4133;BME280;2080;51.038;7.008;2024-02-16T06:56:24;46264.09;;;-142.53;86.20
4133;BME280;2080;51.038;7.008;2024-02-16T06:58:50;46215.97;;;-142.53;86.16
4133;BME280;2080;51.038;7.008;2024-02-16T07:01:16;46204.41;;;-142.53;85.06
4133;BME280;2080;51.038;7.008;2024-02-16T07:03:44;46202.50;;;-142.53;87.41
4133;BME280;2080;51.038;7.008;2024-02-16T07:06:12;46204.41;;;-142.53;85.08
4133;BME280;2080;51.038;7.008;2024-02-16T07:08:39;46325.72;;;-142.53;85.27
4133;BME280;2080;51.038;7.008;2024-02-16T07:11:05;46200.56;;;-142.53;85.00
4133;BME280;2080;51.038;7.008;2024-02-16T07:13:33;46196.72;;;-142.53;85.17
4133;BME280;2080;51.038;7.008;2024-02-16T07:15:59;46189.03;;;-142.53;85.13
4133;BME280;2080;51.038;7.008;2024-02-16T07:18:25;46196.72;;;-142.53;83.97
4133;BME280;2080;51.038;7.008;2024-02-16T07:20:50;46152.44;;;-142.53;83.19
4133;BME280;2080;51.038;7.008;2024-02-16T07:23:16;46138.97;;;-142.53;82.99
4133;BME280;2080;51.038;7.008;2024-02-16T07:25:43;46206.34;;;-142.53;83.17
4133;BME280;2080;51.038;7.008;2024-02-16T07:28:08;46208.28;;;-142.53;83.14
4133;BME280;2080;51.038;7.008;2024-02-16T07:30:36;46179.41;;;-142.53;81.94
4133;BME280;2080;51.038;7.008;2024-02-16T07:33:05;46160.16;;;-142.53;81.44
4133;BME280;2080;51.038;7.008;2024-02-16T07:35:32;46227.53;;;-142.53;82.05
4133;BME280;2080;51.038;7.008;2024-02-16T07:38:01;46150.53;;;-142.53;82.09
4133;BME280;2080;51.038;7.008;2024-02-16T07:40:27;46190.94;;;-142.53;81.41
4133;BME280;2080;51.038;7.008;2024-02-16T07:42:53;46223.69;;;-142.53;80.57
4133;BME280;2080;51.038;7.008;2024-02-16T07:45:19;46150.53;;;-142.53;79.39
4133;BME280;2080;51.038;7.008;2024-02-16T07:47:45;46112.00;;;-142.53;79.79
4133;BME280;2080;51.038;7.008;2024-02-16T07:50:11;46169.78;;;-142.53;81.35
4133;BME280;2080;51.038;7.008;2024-02-16T07:52:38;46162.06;;;-142.53;79.92
4133;BME280;2080;51.038;7.008;2024-02-16T07:55:06;46162.06;;;-142.53;79.77
4133;BME280;2080;51.038;7.008;2024-02-16T07:57:32;46150.53;;;-142.53;79.33
4133;BME280;2080;51.038;7.008;2024-02-16T08:00:00;46135.13;;;-142.53;77.62
4133;BME280;2080;51.038;7.008;2024-02-16T08:02:25;46189.03;;;-142.53;78.43
4133;BME280;2080;51.038;7.008;2024-02-16T08:04:51;46167.84;;;-142.53;78.78
4133;BME280;2080;51.038;7.008;2024-02-16T08:07:19;46138.97;;;-142.53;79.47
4133;BME280;2080;51.038;7.008;2024-02-16T08:09:46;46150.53;;;-142.53;79.06
4133;BME280;2080;51.038;7.008;2024-02-16T08:12:15;46164.00;;;-142.53;80.16
4133;BME280;2080;51.038;7.008;2024-02-16T08:14:41;46135.13;;;-142.53;79.32
4133;BME280;2080;51.038;7.008;2024-02-16T08:17:09;46162.06;;;-142.53;79.04
4133;BME280;2080;51.038;7.008;2024-02-16T08:19:36;46123.56;;;-142.53;79.31
4133;BME280;2080;51.038;7.008;2024-02-16T08:22:03;46138.97;;;-142.53;78.65
4133;BME280;2080;51.038;7.008;2024-02-16T08:24:34;46150.53;;;-142.53;78.19
4133;BME280;2080;51.038;7.008;2024-02-16T08:26:59;46156.28;;;-142.53;80.07
4133;BME280;2080;51.038;7.008;2024-02-16T08:29:25;46154.38;;;-142.53;77.58
4133;BME280;2080;51.038;7.008;2024-02-16T08:31:57;46150.53;;;-142.53;77.80
4133;BME280;2080;51.038;7.008;2024-02-16T08:34:22;46150.53;;;-142.53;77.27
4133;BME280;2080;51.038;7.008;2024-02-16T08:36:49;46108.16;;;-142.53;77.54
4133;BME280;2080;51.038;7.008;2024-02-16T08:39:15;46300.69;;;-142.53;75.81
4133;BME280;2080;51.038;7.008;2024-02-16T08:41:41;46121.66;;;-142.53;76.47
4133;BME280;2080;51.038;7.008;2024-02-16T08:44:09;46135.13;;;-142.53;76.30
4133;BME280;2080;51.038;7.008;2024-02-16T08:46:39;46154.38;;;-142.53;77.80
4133;BME280;2080;51.038;7.008;2024-02-16T08:49:07;46144.75;;;-142.53;77.97
4133;BME280;2080;51.038;7.008;2024-02-16T08:51:35;46138.97;;;-142.53;76.16
4133;BME280;2080;51.038;7.008;2024-02-16T08:54:01;46073.50;;;-142.53;75.73
4133;BME280;2080;51.038;7.008;2024-02-16T08:56:30;46127.41;;;-142.53;74.65
4133;BME280;2080;51.038;7.008;2024-02-16T08:58:55;46119.72;;;-142.53;73.25
4133;BME280;2080;51.038;7.008;2024-02-16T09:03:56;46177.47;;;-142.53;76.17
4133;BME280;2080;51.038;7.008;2024-02-16T09:06:22;46085.06;;;-142.53;75.14
4133;BME280;2080;51.038;7.008;2024-02-16T09:08:47;46154.38;;;-142.53;75.05
4133;BME280;2080;51.038;7.008;2024-02-16T09:11:13;46112.00;;;-142.53;75.16
4133;BME280;2080;51.038;7.008;2024-02-16T09:13:40;46131.28;;;-142.53;75.01
4133;BME280;2080;51.038;7.008;2024-02-16T09:16:06;46173.63;;;-142.53;77.29
4133;BME280;2080;51.038;7.008;2024-02-16T09:18:33;46115.88;;;-142.53;76.14
4133;BME280;2080;51.038;7.008;2024-02-16T09:20:59;46202.50;;;-142.53;76.69
4133;BME280;2080;51.038;7.008;2024-02-16T09:23:25;46096.63;;;-142.53;76.95
4133;BME280;2080;51.038;7.008;2024-02-16T09:25:50;46177.47;;;-142.53;76.15
4133;BME280;2080;51.038;7.008;2024-02-16T09:28:18;46169.78;;;-142.53;78.60
4133;BME280;2080;51.038;7.008;2024-02-16T09:30:44;46142.81;;;-142.53;76.46
4133;BME280;2080;51.038;7.008;2024-02-16T09:33:11;46131.28;;;-142.53;77.33
4133;BME280;2080;51.038;7.008;2024-02-16T09:35:37;46169.78;;;-142.53;78.65
4133;BME280;2080;51.038;7.008;2024-02-16T09:38:03;46146.66;;;-142.53;76.65
4133;BME280;2080;51.038;7.008;2024-02-16T09:40:28;46162.06;;;-142.53;76.55
4133;BME280;2080;51.038;7.008;2024-02-16T09:42:56;46135.13;;;-142.53;76.06
4133;BME280;2080;51.038;7.008;2024-02-16T09:45:24;46123.56;;;-142.53;77.37
4133;BME280;2080;51.038;7.008;2024-02-16T09:47:52;46140.91;;;-142.53;75.79
4133;BME280;2080;51.038;7.008;2024-02-16T09:50:20;46142.81;;;-142.53;74.03
4133;BME280;2080;51.038;7.008;2024-02-16T09:52:47;46104.31;;;-142.53;75.48
4133;BME280;2080;51.038;7.008;2024-02-16T09:55:16;46165.91;;;-142.53;76.38
4133;BME280;2080;51.038;7.008;2024-02-16T09:57:43;46127.41;;;-142.53;76.13
4133;BME280;2080;51.038;7.008;2024-02-16T10:00:10;46123.56;;;-142.53;74.21
4133;BME280;2080;51.038;7.008;2024-02-16T10:02:43;46135.13;;;-142.53;74.15
4133;BME280;2080;51.038;7.008;2024-02-16T10:05:12;46142.81;;;-142.53;73.66
4133;BME280;2080;51.038;7.008;2024-02-16T10:07:38;46100.47;;;-142.53;72.78
4133;BME280;2080;51.038;7.008;2024-02-16T10:10:03;46096.63;;;-142.53;72.49
4133;BME280;2080;51.038;7.008;2024-02-16T10:12:29;46127.41;;;-142.53;74.82
4133;BME280;2080;51.038;7.008;2024-02-16T10:14:56;46135.13;;;-142.53;75.29
4133;BME280;2080;51.038;7.008;2024-02-16T10:17:24;46146.66;;;-142.53;76.11
4133;BME280;2080;51.038;7.008;2024-02-16T10:19:57;46096.63;;;-142.53;75.14
4133;BME280;2080;51.038;7.008;2024-02-16T10:22:22;46042.72;;;-142.53;72.65
4133;BME280;2080;51.038;7.008;2024-02-16T10:24:48;46190.94;;;-142.53;74.58
4133;BME280;2080;51.038;7.008;2024-02-16T10:27:16;46142.81;;;-142.53;74.60
4133;BME280;2080;51.038;7.008;2024-02-16T10:29:49;46138.97;;;-142.53;73.68
4133;BME280;2080;51.038;7.008;2024-02-16T10:32:19;46138.97;;;-142.53;72.95
4133;BME280;2080;51.038;7.008;2024-02-16T10:34:47;46135.13;;;-142.53;72.01
4133;BME280;2080;51.038;7.008;2024-02-16T10:37:13;46127.41;;;-142.53;74.98
4133;BME280;2080;51.038;7.008;2024-02-16T10:39:44;46138.97;;;-142.53;76.66
4133;BME280;2080;51.038;7.008;2024-02-16T10:42:11;46158.22;;;-142.53;77.32
4133;BME280;2080;51.038;7.008;2024-02-16T10:44:38;46123.56;;;-142.53;78.28
4133;BME280;2080;51.038;7.008;2024-02-16T10:47:05;46152.44;;;-142.53;77.24
4133;BME280;2080;51.038;7.008;2024-02-16T10:49:31;46135.13;;;-142.53;79.16
4133;BME280;2080;51.038;7.008;2024-02-16T10:51:57;46154.38;;;-142.53;78.66
4133;BME280;2080;51.038;7.008;2024-02-16T10:54:27;46138.97;;;-142.53;78.00
4133;BME280;2080;51.038;7.008;2024-02-16T10:56:54;46106.25;;;-142.53;78.26
4133;BME280;2080;51.038;7.008;2024-02-16T10:59:20;46127.41;;;-142.53;78.13
4133;BME280;2080;51.038;7.008;2024-02-16T11:01:45;46169.78;;;-142.53;78.92
4133;BME280;2080;51.038;7.008;2024-02-16T11:04:14;46173.63;;;-142.53;81.05
4133;BME280;2080;51.038;7.008;2024-02-16T11:06:53;46169.78;;;-142.53;78.48
4133;BME280;2080;51.038;7.008;2024-02-16T11:09:38;46150.53;;;-142.53;78.73
4133;BME280;2080;51.038;7.008;2024-02-16T11:12:06;46165.91;;;-142.53;80.07
4133;BME280;2080;51.038;7.008;2024-02-16T11:17:19;46162.06;;;-142.53;78.45
4133;BME280;2080;51.038;7.008;2024-02-16T11:19:48;46146.66;;;-142.53;78.35
4133;BME280;2080;51.038;7.008;2024-02-16T11:22:18;46142.81;;;-142.53;79.41
4133;BME280;2080;51.038;7.008;2024-02-16T11:24:50;46154.38;;;-142.53;77.55
4133;BME280;2080;51.038;7.008;2024-02-16T11:27:19;46154.38;;;-142.53;77.23
4133;BME280;2080;51.038;7.008;2024-02-16T11:29:45;46198.66;;;-142.53;77.88
4133;BME280;2080;51.038;7.008;2024-02-16T11:32:11;46160.16;;;-142.53;78.97
4133;BME280;2080;51.038;7.008;2024-02-16T11:34:37;46144.75;;;-142.53;78.58
4133;BME280;2080;51.038;7.008;2024-02-16T11:37:06;46158.22;;;-142.53;80.60
4133;BME280;2080;51.038;7.008;2024-02-16T11:39:32;46158.22;;;-142.53;80.80
4133;BME280;2080;51.038;7.008;2024-02-16T11:42:11;46179.41;;;-142.53;79.86
4133;BME280;2080;51.038;7.008;2024-02-16T11:44:38;46150.53;;;-142.53;79.14
4133;BME280;2080;51.038;7.008;2024-02-16T11:47:09;46154.38;;;-142.53;78.51
4133;BME280;2080;51.038;7.008;2024-02-16T11:49:38;46171.69;;;-142.53;79.44
4133;BME280;2080;51.038;7.008;2024-02-16T11:52:10;46158.22;;;-142.53;79.07
4133;BME280;2080;51.038;7.008;2024-02-16T11:54:35;46150.53;;;-142.53;78.76
4133;BME280;2080;51.038;7.008;2024-02-16T11:57:03;46173.63;;;-142.53;79.81
4133;BME280;2080;51.038;7.008;2024-02-16T11:59:28;46181.31;;;-142.53;81.19
4133;BME280;2080;51.038;7.008;2024-02-16T12:01:58;46189.03;;;-142.53;79.20
4133;BME280;2080;51.038;7.008;2024-02-16T12:04:28;46165.91;;;-142.53;79.05
4133;BME280;2080;51.038;7.008;2024-02-16T12:06:58;46167.84;;;-142.53;80.94
4133;BME280;2080;51.038;7.008;2024-02-16T12:09:27;46164.00;;;-142.53;79.79
4133;BME280;2080;51.038;7.008;2024-02-16T12:11:54;46181.31;;;-142.53;80.65
4133;BME280;2080;51.038;7.008;2024-02-16T12:14:22;46187.09;;;-142.53;81.34
4133;BME280;2080;51.038;7.008;2024-02-16T12:17:00;46185.16;;;-142.53;81.68
4133;BME280;2080;51.038;7.008;2024-02-16T12:19:25;46173.63;;;-142.53;82.20
4133;BME280;2080;51.038;7.008;2024-02-16T12:21:52;46200.56;;;-142.53;83.25
4133;BME280;2080;51.038;7.008;2024-02-16T12:24:18;46181.31;;;-142.53;81.71
4133;BME280;2080;51.038;7.008;2024-02-16T12:26:44;46204.41;;;-142.53;82.66
4133;BME280;2080;51.038;7.008;2024-02-16T12:29:09;46177.47;;;-142.53;84.49
4133;BME280;2080;51.038;7.008;2024-02-16T12:31:38;46231.38;;;-142.53;84.98
4133;BME280;2080;51.038;7.008;2024-02-16T12:34:05;46117.78;;;-142.53;82.51
4133;BME280;2080;51.038;7.008;2024-02-16T12:36:33;46206.34;;;-142.53;83.15
4133;BME280;2080;51.038;7.008;2024-02-16T12:39:00;46219.81;;;-142.53;84.10
4133;BME280;2080;51.038;7.008;2024-02-16T12:41:26;46229.44;;;-142.53;85.28
4133;BME280;2080;51.038;7.008;2024-02-16T12:43:51;46362.28;;;-142.53;82.97
4133;BME280;2080;51.038;7.008;2024-02-16T12:46:18;46242.94;;;-142.53;83.45
4133;BME280;2080;51.038;7.008;2024-02-16T12:48:46;46242.94;;;-142.53;83.48
4133;BME280;2080;51.038;7.008;2024-02-16T12:51:12;46154.38;;;-142.53;83.93
4133;BME280;2080;51.038;7.008;2024-02-16T12:53:38;46246.78;;;-142.53;82.52
4133;BME280;2080;51.038;7.008;2024-02-16T12:56:07;46208.28;;;-142.53;80.86
4133;BME280;2080;51.038;7.008;2024-02-16T12:58:36;46189.03;;;-142.53;80.55
4133;BME280;2080;51.038;7.008;2024-02-16T13:01:05;46192.88;;;-142.53;81.12
4133;BME280;2080;51.038;7.008;2024-02-16T13:03:35;46208.28;;;-142.53;79.78
4133;BME280;2080;51.038;7.008;2024-02-16T13:06:01;46242.94;;;-142.53;85.38
4133;BME280;2080;51.038;7.008;2024-02-16T13:08:28;46196.72;;;-142.53;84.60
4133;BME280;2080;51.038;7.008;2024-02-16T13:10:55;46266.03;;;-142.53;86.21